createdAt,value
2022-12-09T00:00:23.878Z,97457.13
2022-12-09T00:01:25.283Z,97452.19
2022-12-09T00:02:28.581Z,97442.00
2022-12-09T00:03:30.181Z,97449.03
2022-12-09T00:04:32.041Z,97451.91
2022-12-09T00:05:33.720Z,97448.53
2022-12-09T00:06:35.227Z,97445.16
2022-12-09T00:07:36.928Z,97446.97
2022-12-09T00:08:38.520Z,97443.06
2022-12-09T00:09:39.931Z,97446.97
2022-12-09T00:10:42.996Z,97440.72
2022-12-09T00:11:44.553Z,97442.78
2022-12-09T00:12:45.943Z,97435.22
2022-12-09T00:13:51.060Z,97429.50
2022-12-09T00:14:52.389Z,97430.78
2022-12-09T00:15:54.078Z,97428.97
2022-12-09T00:16:55.538Z,97433.66
2022-12-09T00:17:57.139Z,97429.75
2022-12-09T00:18:58.542Z,97431.06
2022-12-09T00:20:00.138Z,97426.34
2022-12-09T00:21:20.119Z,97430.25
2022-12-09T00:22:21.894Z,97425.28
2022-12-09T00:23:23.327Z,97428.16
2022-12-09T00:24:24.683Z,97425.81
2022-12-09T00:25:26.047Z,97422.66
2022-12-09T00:26:28.081Z,97421.66
2022-12-09T00:27:29.643Z,97419.84
2022-12-09T00:28:31.014Z,97421.38
2022-12-09T00:29:32.392Z,97426.88
2022-12-09T00:30:33.781Z,97424.50
2022-12-09T00:31:36.199Z,97419.56
2022-12-09T00:32:37.901Z,97419.81
2022-12-09T00:33:39.934Z,97421.63
2022-12-09T00:34:41.277Z,97424.25
2022-12-09T00:35:42.852Z,97426.03
2022-12-09T00:36:44.265Z,97432.28
2022-12-09T00:37:45.707Z,97425.25
2022-12-09T00:38:48.871Z,97425.53
2022-12-09T00:39:50.223Z,97423.97
2022-12-09T00:40:51.540Z,97423.44
2022-12-09T00:41:52.911Z,97416.69
2022-12-09T00:42:54.252Z,97418.50
2022-12-09T00:43:55.996Z,97412.00
2022-12-09T00:44:57.321Z,97415.91
2022-12-09T00:45:58.754Z,97412.53
2022-12-09T00:47:00.252Z,97417.22
2022-12-09T00:48:01.662Z,97419.28
2022-12-09T00:49:03.987Z,97416.94
2022-12-09T00:50:06.203Z,97415.63
2022-12-09T00:51:10.371Z,97415.09
2022-12-09T00:52:11.923Z,97412.50
2022-12-09T00:53:13.310Z,97419.28
2022-12-09T00:54:14.979Z,97415.38
2022-12-09T00:55:16.533Z,97419.28
2022-12-09T00:56:17.984Z,97424.25
2022-12-09T00:57:19.373Z,97422.16
2022-12-09T00:58:20.972Z,97418.78
2022-12-09T00:59:22.442Z,97421.63
2022-12-09T01:00:23.767Z,97419.28
2022-12-09T01:01:26.572Z,97423.69
2022-12-09T01:02:28.331Z,97418.50
2022-12-09T01:03:31.253Z,97417.72
2022-12-09T01:04:33.098Z,97422.94
2022-12-09T01:05:34.976Z,97421.63
2022-12-09T01:06:36.282Z,97427.09
2022-12-09T01:07:37.654Z,97429.19
2022-12-09T01:08:39.854Z,97426.03
2022-12-09T01:09:41.729Z,97436.44
2022-12-09T01:10:44.255Z,97423.44
2022-12-09T01:11:45.582Z,97423.69
2022-12-09T01:12:47.517Z,97425.53
2022-12-09T01:13:49.415Z,97426.56
2022-12-09T01:14:51.012Z,97423.69
2022-12-09T01:15:52.535Z,97422.91
2022-12-09T01:16:54.139Z,97425.78
2022-12-09T01:17:55.622Z,97431.78
2022-12-09T01:19:00.902Z,97426.00
2022-12-09T01:20:08.457Z,97436.69
2022-12-09T01:21:10.170Z,97430.97
2022-12-09T01:22:11.678Z,97430.69
2022-12-09T01:23:13.191Z,97430.19
2022-12-09T01:24:14.778Z,97430.69
2022-12-09T01:25:16.195Z,97431.97
2022-12-09T01:26:18.516Z,97435.59
2022-12-09T01:27:19.907Z,97433.25
2022-12-09T01:28:21.898Z,97432.72
2022-12-09T01:29:23.316Z,97427.78
2022-12-09T01:30:24.810Z,97426.47
2022-12-09T01:31:26.532Z,97433.22
2022-12-09T01:32:28.347Z,97431.13
2022-12-09T01:33:29.987Z,97426.66
2022-12-09T01:34:31.444Z,97424.31
2022-12-09T01:35:33.103Z,97420.41
2022-12-09T01:36:34.465Z,97418.31
2022-12-09T01:37:38.392Z,97419.59
2022-12-09T01:38:39.715Z,97415.16
2022-12-09T01:39:41.435Z,97419.03
2022-12-09T01:40:46.450Z,97422.69
2022-12-09T01:41:48.695Z,97413.56
2022-12-09T01:42:50.355Z,97413.81
2022-12-09T01:44:11.681Z,97411.72
2022-12-09T01:45:22.389Z,97413.81
2022-12-09T01:46:26.813Z,97415.88
2022-12-09T01:47:28.526Z,97418.44
2022-12-09T01:48:32.265Z,97413.50
2022-12-09T01:49:39.125Z,97412.44
2022-12-09T01:50:42.956Z,97406.94
2022-12-09T01:51:45.767Z,97405.38
2022-12-09T01:52:49.938Z,97408.50
2022-12-09T01:53:51.722Z,97402.50
2022-12-09T01:54:54.742Z,97402.75
2022-12-09T01:55:58.136Z,97404.81
2022-12-09T01:56:59.782Z,97406.38
2022-12-09T01:58:02.143Z,97395.22
2022-12-09T01:59:05.457Z,97396.25
2022-12-09T02:00:07.836Z,97399.09
2022-12-09T02:01:18.111Z,97396.47
2022-12-09T02:02:20.442Z,97393.09
2022-12-09T02:03:22.359Z,97392.31
2022-12-09T02:04:24.543Z,97391.81
2022-12-09T02:05:26.822Z,97394.41
2022-12-09T02:06:32.285Z,97391.03
2022-12-09T02:07:33.903Z,97386.84
2022-12-09T02:08:35.412Z,97388.91
2022-12-09T02:09:39.246Z,97388.13
2022-12-09T02:10:46.936Z,97381.09
2022-12-09T02:12:06.745Z,97376.16
2022-12-09T02:13:14.295Z,97376.91
2022-12-09T02:14:15.902Z,97375.34
2022-12-09T02:15:25.482Z,97368.84
2022-12-09T02:16:29.070Z,97368.84
2022-12-09T02:17:33.760Z,97371.44
2022-12-09T02:18:56.009Z,97368.31
2022-12-09T02:20:14.474Z,97367.75
2022-12-09T02:21:18.986Z,97369.59
2022-12-09T02:22:29.356Z,97363.13
2022-12-09T02:23:38.086Z,97361.00
2022-12-09T02:24:46.338Z,97362.56
2022-12-09T02:25:49.605Z,97363.09
2022-12-09T02:27:01.066Z,97351.88
2022-12-09T02:28:14.241Z,97361.28
2022-12-09T02:29:34.552Z,97360.50
2022-12-09T02:30:56.163Z,97357.59
2022-12-09T02:32:01.174Z,97353.44
2022-12-09T02:33:21.422Z,97354.72
2022-12-09T02:34:24.569Z,97353.66
2022-12-09T02:35:37.266Z,97350.56
2022-12-09T02:37:02.602Z,97347.41
2022-12-09T02:38:10.592Z,97350.25
2022-12-09T02:39:11.903Z,97346.88
2022-12-09T02:40:17.862Z,97345.31
2022-12-09T02:41:21.876Z,97347.91
2022-12-09T02:42:25.578Z,97345.03
2022-12-09T02:43:30.470Z,97342.19
2022-12-09T02:44:32.643Z,97338.78
2022-12-09T02:45:35.240Z,97338.28
2022-12-09T02:46:38.195Z,97337.50
2022-12-09T02:47:44.841Z,97338.53
2022-12-09T02:48:52.251Z,97330.75
2022-12-09T02:50:02.189Z,97331.53
2022-12-09T02:51:07.383Z,97334.13
2022-12-09T02:52:10.409Z,97333.34
2022-12-09T02:53:14.726Z,97343.72
2022-12-09T02:54:17.829Z,97330.75
2022-12-09T02:55:21.043Z,97335.13
2022-12-09T02:56:24.299Z,97335.94
2022-12-09T02:57:28.188Z,97340.88
2022-12-09T02:58:29.951Z,97336.97
2022-12-09T02:59:31.567Z,97338.84
2022-12-09T03:00:33.321Z,97331.59
2022-12-09T03:01:37.949Z,97328.47
2022-12-09T03:02:41.515Z,97326.44
2022-12-09T03:03:44.684Z,97325.38
2022-12-09T03:05:02.457Z,97323.31
2022-12-09T03:06:10.277Z,97326.72
2022-12-09T03:07:25.993Z,97323.06
2022-12-09T03:08:46.162Z,97319.44
2022-12-09T03:09:52.434Z,97323.63
2022-12-09T03:10:57.899Z,97317.16
2022-12-09T03:12:00.846Z,97323.91
2022-12-09T03:13:05.808Z,97314.59
2022-12-09T03:14:17.068Z,97314.81
2022-12-09T03:15:22.810Z,97317.69
2022-12-09T03:16:27.186Z,97310.66
2022-12-09T03:17:31.181Z,97317.41
2022-12-09T03:18:34.044Z,97314.81
2022-12-09T03:19:39.358Z,97318.47
2022-12-09T03:20:41.493Z,97312.75
2022-12-09T03:21:45.647Z,97317.72
2022-12-09T03:22:48.249Z,97309.63
2022-12-09T03:23:51.906Z,97309.09
2022-12-09T03:24:54.397Z,97307.78
2022-12-09T03:25:56.780Z,97304.41
2022-12-09T03:27:00.477Z,97307.53
2022-12-09T03:28:03.993Z,97306.22
2022-12-09T03:29:08.654Z,97300.75
2022-12-09T03:30:11.108Z,97301.25
2022-12-09T03:31:16.005Z,97302.28
2022-12-09T03:32:19.644Z,97299.41
2022-12-09T03:33:23.439Z,97296.03
2022-12-09T03:34:28.486Z,97304.59
2022-12-09T03:35:32.365Z,97299.66
2022-12-09T03:36:36.580Z,97303.28
2022-12-09T03:37:39.995Z,97300.94
2022-12-09T03:38:43.316Z,97306.91
2022-12-09T03:39:45.149Z,97299.63
2022-12-09T03:40:49.010Z,97305.06
2022-12-09T03:41:57.877Z,97308.44
2022-12-09T03:43:05.486Z,97311.84
2022-12-09T03:44:06.789Z,97309.25
2022-12-09T03:45:11.521Z,97308.22
2022-12-09T03:46:12.993Z,97303.25
2022-12-09T03:47:14.597Z,97304.06
2022-12-09T03:48:16.155Z,97304.84
2022-12-09T03:49:17.973Z,97304.31
2022-12-09T03:50:21.301Z,97301.50
2022-12-09T03:51:28.923Z,97297.34
2022-12-09T03:52:45.346Z,97295.00
2022-12-09T03:53:50.391Z,97304.34
2022-12-09T03:55:04.386Z,97302.78
2022-12-09T03:56:15.364Z,97298.13
2022-12-09T03:57:19.336Z,97298.38
2022-12-09T03:58:21.407Z,97298.66
2022-12-09T03:59:27.463Z,97290.06
2022-12-09T04:00:28.994Z,97290.03
2022-12-09T04:01:32.100Z,97295.72
2022-12-09T04:02:34.076Z,97298.53
2022-12-09T04:03:35.767Z,97304.78
2022-12-09T04:04:40.850Z,97298.75
2022-12-09T04:05:42.553Z,97294.88
2022-12-09T04:06:44.237Z,97295.91
2022-12-09T04:07:45.760Z,97300.56
2022-12-09T04:08:47.397Z,97293.53
2022-12-09T04:09:49.086Z,97299.00
2022-12-09T04:10:50.839Z,97300.56
2022-12-09T04:11:52.396Z,97300.56
2022-12-09T04:12:53.757Z,97298.22
2022-12-09T04:13:55.299Z,97294.28
2022-12-09T04:14:56.952Z,97293.50
2022-12-09T04:15:58.648Z,97291.69
2022-12-09T04:17:00.286Z,97296.09
2022-12-09T04:18:01.907Z,97287.78
2022-12-09T04:19:03.668Z,97288.56
2022-12-09T04:20:06.761Z,97288.84
2022-12-09T04:21:09.731Z,97291.44
2022-12-09T04:22:11.221Z,97288.56
2022-12-09T04:23:12.718Z,97290.38
2022-12-09T04:24:14.224Z,97291.16
2022-12-09T04:25:15.739Z,97290.66
2022-12-09T04:26:19.288Z,97288.06
2022-12-09T04:27:20.698Z,97282.59
2022-12-09T04:28:22.285Z,97288.56
2022-12-09T04:29:23.844Z,97285.97
2022-12-09T04:30:25.523Z,97285.97
2022-12-09T04:31:27.452Z,97280.25
2022-12-09T04:32:29.663Z,97277.66
2022-12-09T04:33:31.276Z,97276.63
2022-12-09T04:34:33.228Z,97280.53
2022-12-09T04:35:34.897Z,97271.19
2022-12-09T04:36:36.544Z,97267.84
2022-12-09T04:37:38.127Z,97266.28
2022-12-09T04:38:40.297Z,97260.53
2022-12-09T04:39:41.912Z,97258.75
2022-12-09T04:40:43.499Z,97259.75
2022-12-09T04:41:45.299Z,97259.22
2022-12-09T04:42:46.856Z,97254.03
2022-12-09T04:43:48.260Z,97256.13
2022-12-09T04:44:49.686Z,97258.94
2022-12-09T04:45:51.178Z,97255.03
2022-12-09T04:46:52.671Z,97256.06
2022-12-09T04:47:54.202Z,97252.94
2022-12-09T04:48:55.653Z,97247.75
2022-12-09T04:49:57.075Z,97239.97
2022-12-09T04:50:59.192Z,97237.63
2022-12-09T04:52:00.792Z,97240.44
2022-12-09T04:53:02.371Z,97241.75
2022-12-09T04:54:05.070Z,97242.53
2022-12-09T04:55:06.981Z,97244.84
2022-12-09T04:56:12.095Z,97234.47
2022-12-09T04:57:13.749Z,97237.84
2022-12-09T04:58:15.139Z,97232.16
2022-12-09T04:59:16.810Z,97239.97
2022-12-09T05:00:18.620Z,97238.88
2022-12-09T05:01:26.355Z,97231.34
2022-12-09T05:02:30.104Z,97233.94
2022-12-09T05:03:31.609Z,97230.03
2022-12-09T05:04:33.610Z,97231.06
2022-12-09T05:05:35.526Z,97234.69
2022-12-09T05:06:37.259Z,97229.50
2022-12-09T05:07:38.958Z,97229.50
2022-12-09T05:08:41.481Z,97227.16
2022-12-09T05:09:43.141Z,97221.97
2022-12-09T05:10:48.551Z,97224.56
2022-12-09T05:11:50.147Z,97220.66
2022-12-09T05:12:51.799Z,97225.84
2022-12-09T05:13:53.964Z,97228.97
2022-12-09T05:14:55.731Z,97225.09
2022-12-09T05:16:01.225Z,97220.16
2022-12-09T05:17:03.777Z,97225.09
2022-12-09T05:18:05.314Z,97213.16
2022-12-09T05:19:07.089Z,97218.34
2022-12-09T05:20:09.488Z,97217.00
2022-12-09T05:21:13.088Z,97223.78
2022-12-09T05:22:16.030Z,97208.22
2022-12-09T05:23:17.664Z,97217.56
2022-12-09T05:24:19.139Z,97218.34
2022-12-09T05:25:20.918Z,97206.41
2022-12-09T05:26:22.944Z,97209.78
2022-12-09T05:27:24.507Z,97210.81
2022-12-09T05:28:26.288Z,97210.56
2022-12-09T05:29:28.129Z,97209.53
2022-12-09T05:30:30.003Z,97205.09
2022-12-09T05:31:31.871Z,97203.84
2022-12-09T05:32:33.603Z,97205.13
2022-12-09T05:33:35.325Z,97205.13
2022-12-09T05:34:37.368Z,97205.91
2022-12-09T05:35:50.521Z,97204.91
2022-12-09T05:36:54.202Z,97202.06
2022-12-09T05:37:56.037Z,97219.97
2022-12-09T05:38:57.848Z,97212.19
2022-12-09T05:39:59.363Z,97206.19
2022-12-09T05:41:01.227Z,97199.19
2022-12-09T05:42:03.025Z,97204.38
2022-12-09T05:43:04.495Z,97197.63
2022-12-09T05:44:06.370Z,97206.19
2022-12-09T05:45:08.317Z,97198.16
2022-12-09T05:46:10.135Z,97197.94
2022-12-09T05:47:12.088Z,97196.63
2022-12-09T05:48:13.989Z,97199.00
2022-12-09T05:49:15.726Z,97197.94
2022-12-09T05:50:21.116Z,97196.91
2022-12-09T05:51:24.615Z,97197.69
2022-12-09T05:52:26.247Z,97195.38
2022-12-09T05:53:28.478Z,97193.03
2022-12-09T05:54:30.269Z,97192.03
2022-12-09T05:55:31.786Z,97196.69
2022-12-09T05:56:33.503Z,97188.13
2022-12-09T05:57:35.239Z,97191.28
2022-12-09T05:58:36.854Z,97189.97
2022-12-09T05:59:38.280Z,97180.13
2022-12-09T06:00:39.774Z,97186.88
2022-12-09T06:01:41.417Z,97181.44
2022-12-09T06:02:43.836Z,97177.00
2022-12-09T06:03:50.101Z,97182.97
2022-12-09T06:04:52.039Z,97179.59
2022-12-09T06:05:53.649Z,97180.38
2022-12-09T06:06:55.951Z,97168.19
2022-12-09T06:08:01.094Z,97170.78
2022-12-09T06:09:05.380Z,97178.34
2022-12-09T06:10:08.227Z,97170.53
2022-12-09T06:11:15.601Z,97175.72
2022-12-09T06:12:17.092Z,97173.91
2022-12-09T06:13:18.812Z,97184.81
2022-12-09T06:14:20.360Z,97169.25
2022-12-09T06:15:25.722Z,97173.38
2022-12-09T06:16:29.958Z,97172.13
2022-12-09T06:17:31.531Z,97169.81
2022-12-09T06:18:33.233Z,97168.25
2022-12-09T06:19:35.223Z,97169.81
2022-12-09T06:20:39.293Z,97168.25
2022-12-09T06:21:41.564Z,97169.03
2022-12-09T06:22:43.149Z,97166.91
2022-12-09T06:23:44.924Z,97171.84
2022-12-09T06:24:46.667Z,97168.75
2022-12-09T06:25:48.556Z,97165.88
2022-12-09T06:26:52.827Z,97161.72
2022-12-09T06:27:54.543Z,97160.94
2022-12-09T06:28:56.283Z,97162.00
2022-12-09T06:29:57.814Z,97170.78
2022-12-09T06:30:59.518Z,97165.59
2022-12-09T06:32:01.748Z,97168.47
2022-12-09T06:33:17.291Z,97168.47
2022-12-09T06:34:25.345Z,97165.09
2022-12-09T06:35:26.909Z,97167.94
2022-12-09T06:36:30.168Z,97163.78
2022-12-09T06:37:31.924Z,97164.31
2022-12-09T06:38:33.501Z,97169.50
2022-12-09T06:39:34.919Z,97160.94
2022-12-09T06:40:40.777Z,97164.31
2022-12-09T06:41:42.954Z,97155.47
2022-12-09T06:44:00.776Z,97169.25
2022-12-09T06:45:02.761Z,97160.41
2022-12-09T06:46:11.161Z,97168.47
2022-12-09T06:47:12.715Z,97165.59
2022-12-09T06:48:14.505Z,97170.78
2022-12-09T06:49:16.586Z,97171.59
2022-12-09T06:50:18.359Z,97178.59
2022-12-09T06:51:19.905Z,97173.38
2022-12-09T06:52:22.161Z,97182.22
2022-12-09T06:53:23.602Z,97174.44
2022-12-09T06:54:25.026Z,97176.78
2022-12-09T06:55:26.787Z,97169.78
2022-12-09T06:56:28.436Z,97179.41
2022-12-09T06:57:30.077Z,97177.03
2022-12-09T06:58:31.623Z,97173.66
2022-12-09T06:59:33.006Z,97164.31
2022-12-09T07:00:34.551Z,97167.94
2022-12-09T07:01:36.706Z,97170.28
2022-12-09T07:02:38.301Z,97171.06
2022-12-09T07:03:40.933Z,97169.75
2022-12-09T07:04:42.678Z,97169.00
2022-12-09T07:05:45.113Z,97174.41
2022-12-09T07:06:47.091Z,97166.63
2022-12-09T07:07:52.193Z,97171.03
2022-12-09T07:08:54.888Z,97170.25
2022-12-09T07:09:57.029Z,97166.63
2022-12-09T07:11:01.291Z,97169.22
2022-12-09T07:12:03.577Z,97168.69
2022-12-09T07:13:05.411Z,97167.41
2022-12-09T07:14:06.901Z,97176.50
2022-12-09T07:15:09.191Z,97176.72
2022-12-09T07:16:13.425Z,97171.78
2022-12-09T07:17:16.644Z,97172.06
2022-12-09T07:18:18.299Z,97169.19
2022-12-09T07:19:21.297Z,97178.03
2022-12-09T07:20:23.230Z,97179.31
2022-12-09T07:21:24.807Z,97180.38
2022-12-09T07:22:29.723Z,97184.25
2022-12-09T07:23:31.352Z,97180.34
2022-12-09T07:24:32.912Z,97178.53
2022-12-09T07:25:34.337Z,97175.44
2022-12-09T07:26:35.807Z,97179.59
2022-12-09T07:27:37.518Z,97176.72
2022-12-09T07:28:39.997Z,97176.50
2022-12-09T07:29:44.538Z,97167.66
2022-12-09T07:30:46.357Z,97169.22
2022-12-09T07:31:51.297Z,97172.59
2022-12-09T07:32:53.054Z,97168.19
2022-12-09T07:33:56.441Z,97168.72
2022-12-09T07:34:58.088Z,97171.84
2022-12-09T07:36:03.797Z,97166.41
2022-12-09T07:37:07.146Z,97168.75
2022-12-09T07:38:08.726Z,97165.09
2022-12-09T07:39:12.692Z,97166.66
2022-12-09T07:40:14.414Z,97157.84
2022-12-09T07:41:15.852Z,97163.03
2022-12-09T07:42:17.429Z,97160.97
2022-12-09T07:43:26.612Z,97160.69
2022-12-09T07:44:28.200Z,97162.81
2022-12-09T07:45:30.153Z,97156.06
2022-12-09T07:46:31.740Z,97158.38
2022-12-09T07:47:33.632Z,97147.50
2022-12-09T07:48:35.618Z,97146.97
2022-12-09T07:49:37.608Z,97151.13
2022-12-09T07:50:39.128Z,97153.72
2022-12-09T07:51:41.475Z,97153.22
2022-12-09T07:52:42.924Z,97155.31
2022-12-09T07:53:45.234Z,97160.25
2022-12-09T07:54:46.640Z,97155.81
2022-12-09T07:55:48.454Z,97152.19
2022-12-09T07:56:50.033Z,97156.63
2022-12-09T07:57:51.561Z,97167.56
2022-12-09T07:58:53.153Z,97157.41
2022-12-09T07:59:54.660Z,97157.69
2022-12-09T08:00:56.018Z,97161.59
2022-12-09T08:02:02.516Z,97161.06
2022-12-09T08:03:07.390Z,97163.44
2022-12-09T08:04:09.229Z,97155.38
2022-12-09T08:05:11.427Z,97160.84
2022-12-09T08:06:15.120Z,97161.34
2022-12-09T08:07:17.001Z,97160.84
2022-12-09T08:08:19.158Z,97159.28
2022-12-09T08:09:21.371Z,97158.75
2022-12-09T08:10:23.770Z,97156.69
2022-12-09T08:11:26.787Z,97158.53
2022-12-09T08:12:28.991Z,97154.09
2022-12-09T08:13:30.455Z,97158.00
2022-12-09T08:14:32.259Z,97159.81
2022-12-09T08:15:33.992Z,97152.53
2022-12-09T08:16:35.856Z,97152.00
2022-12-09T08:17:37.589Z,97157.47
2022-12-09T08:18:40.278Z,97152.78
2022-12-09T08:19:42.145Z,97155.38
2022-12-09T08:20:43.739Z,97155.94
2022-12-09T08:21:49.578Z,97149.69
2022-12-09T08:22:54.276Z,97144.97
2022-12-09T08:23:56.853Z,97147.84
2022-12-09T08:24:58.784Z,97144.75
2022-12-09T08:26:00.405Z,97148.63
2022-12-09T08:27:02.688Z,97145.78
2022-12-09T08:28:04.755Z,97149.41
2022-12-09T08:29:07.395Z,97147.06
2022-12-09T08:30:09.495Z,97144.47
2022-12-09T08:31:13.493Z,97142.38
2022-12-09T08:32:17.069Z,97136.63
2022-12-09T08:33:18.955Z,97142.09
2022-12-09T08:34:20.619Z,97142.88
2022-12-09T08:35:22.399Z,97138.19
2022-12-09T08:36:25.486Z,97136.63
2022-12-09T08:37:27.239Z,97137.16
2022-12-09T08:38:28.839Z,97137.91
2022-12-09T08:39:31.781Z,97137.91
2022-12-09T08:40:33.691Z,97144.94
2022-12-09T08:41:36.807Z,97135.28
2022-12-09T08:42:39.373Z,97136.56
2022-12-09T08:43:41.407Z,97136.56
2022-12-09T08:44:42.888Z,97130.56
2022-12-09T08:45:44.485Z,97131.34
2022-12-09T08:46:50.192Z,97122.50
2022-12-09T08:47:51.898Z,97122.50
2022-12-09T08:48:53.806Z,97124.31
2022-12-09T08:49:55.716Z,97128.22
2022-12-09T08:50:57.384Z,97127.44
2022-12-09T08:51:59.650Z,97121.97
2022-12-09T08:53:01.703Z,97123.00
2022-12-09T08:54:04.147Z,97114.91
2022-12-09T08:55:06.276Z,97122.72
2022-12-09T08:56:11.709Z,97131.56
2022-12-09T08:57:13.551Z,97128.16
2022-12-09T08:58:14.866Z,97127.66
2022-12-09T08:59:16.949Z,97121.38
2022-12-09T09:00:18.933Z,97125.81
2022-12-09T09:01:22.667Z,97121.66
2022-12-09T09:02:24.550Z,97114.38
2022-12-09T09:03:26.356Z,97114.66
2022-12-09T09:04:28.095Z,97116.47
2022-12-09T09:05:30.048Z,97118.28
2022-12-09T09:06:32.263Z,97109.44
2022-12-09T09:07:34.003Z,97116.47
2022-12-09T09:08:35.888Z,97112.03
2022-12-09T09:09:37.910Z,97115.72
2022-12-09T09:10:39.865Z,97113.09
2022-12-09T09:11:42.057Z,97114.38
2022-12-09T09:12:44.321Z,97112.56
2022-12-09T09:13:47.125Z,97120.38
2022-12-09T09:14:48.517Z,97111.25
2022-12-09T09:15:50.408Z,97115.16
2022-12-09T09:16:52.047Z,97116.19
2022-12-09T09:17:54.161Z,97112.03
2022-12-09T09:18:56.395Z,97112.81
2022-12-09T09:19:58.475Z,97113.09
2022-12-09T09:21:00.507Z,97111.50
2022-12-09T09:22:02.082Z,97115.44
2022-12-09T09:23:04.317Z,97113.09
2022-12-09T09:24:10.485Z,97109.44
2022-12-09T09:25:12.871Z,97103.94
2022-12-09T09:26:16.000Z,97113.06
2022-12-09T09:27:17.766Z,97105.75
2022-12-09T09:28:19.370Z,97114.88
2022-12-09T09:29:22.034Z,97109.13
2022-12-09T09:30:23.629Z,97117.47
2022-12-09T09:31:25.208Z,97120.88
2022-12-09T09:32:27.275Z,97119.81
2022-12-09T09:33:29.035Z,97119.03
2022-12-09T09:34:30.642Z,97111.25
2022-12-09T09:35:32.370Z,97122.72
2022-12-09T09:36:34.109Z,97115.41
2022-12-09T09:37:35.645Z,97110.97
2022-12-09T09:38:37.571Z,97111.47
2022-12-09T09:39:40.582Z,97119.53
2022-12-09T09:40:42.301Z,97115.09
2022-12-09T09:41:53.581Z,97116.41
2022-12-09T09:42:57.411Z,97120.28
2022-12-09T09:43:59.053Z,97111.44
2022-12-09T09:45:03.322Z,97112.72
2022-12-09T09:46:05.243Z,97114.81
2022-12-09T09:47:36.229Z,97109.59
2022-12-09T09:48:40.020Z,97112.16
2022-12-09T09:49:47.739Z,97112.66
2022-12-09T09:50:52.460Z,97106.72
2022-12-09T09:51:54.238Z,97100.97
2022-12-09T09:52:59.101Z,97102.00
2022-12-09T09:54:06.754Z,97105.66
2022-12-09T09:55:17.273Z,97103.06
2022-12-09T09:56:25.477Z,97103.56
2022-12-09T09:57:32.667Z,97095.19
2022-12-09T09:58:34.284Z,97094.38
2022-12-09T09:59:35.815Z,97088.38
2022-12-09T10:00:48.465Z,97090.47
2022-12-09T10:02:10.621Z,97087.28
2022-12-09T10:03:15.003Z,97086.03
2022-12-09T10:04:16.667Z,97091.72
2022-12-09T10:05:29.040Z,97090.44
2022-12-09T10:06:45.571Z,97085.47
2022-12-09T10:07:49.649Z,97086.44
2022-12-09T10:08:57.377Z,97086.97
2022-12-09T10:10:18.051Z,97085.16
2022-12-09T10:11:35.160Z,97074.41
2022-12-09T10:12:49.474Z,97083.25
2022-12-09T10:13:55.223Z,97074.63
2022-12-09T10:15:04.610Z,97075.38
2022-12-09T10:16:09.636Z,97075.34
2022-12-09T10:17:14.560Z,97073.75
2022-12-09T10:18:22.458Z,97075.06
2022-12-09T10:19:35.278Z,97070.81
2022-12-09T10:20:37.684Z,97072.34
2022-12-09T10:21:41.600Z,97065.31
2022-12-09T10:22:50.551Z,97072.56
2022-12-09T10:23:54.702Z,97072.31
2022-12-09T10:24:58.118Z,97072.59
2022-12-09T10:26:03.123Z,97069.00
2022-12-09T10:27:23.818Z,97072.94
2022-12-09T10:28:27.673Z,97074.47
2022-12-09T10:29:49.894Z,97065.59
2022-12-09T10:30:52.651Z,97073.94
2022-12-09T10:31:55.414Z,97072.34
2022-12-09T10:32:57.111Z,97072.59
2022-12-09T10:33:58.957Z,97066.84
2022-12-09T10:35:01.418Z,97073.09
2022-12-09T10:36:03.508Z,97073.03
2022-12-09T10:37:05.155Z,97068.56
2022-12-09T10:38:08.427Z,97070.06
2022-12-09T10:39:21.117Z,97063.75
2022-12-09T10:40:23.109Z,97068.88
2022-12-09T10:41:34.423Z,97061.00
2022-12-09T10:42:47.057Z,97062.59
2022-12-09T10:43:48.636Z,97060.81
2022-12-09T10:44:50.521Z,97061.03
2022-12-09T10:47:29.045Z,97053.31
2022-12-09T10:48:36.445Z,97053.34
2022-12-09T10:49:42.306Z,97053.38
2022-12-09T10:50:44.468Z,97061.16
2022-12-09T10:51:51.017Z,97056.97
2022-12-09T10:52:52.696Z,97060.28
2022-12-09T10:54:19.321Z,97055.06
2022-12-09T10:55:27.161Z,97046.09
2022-12-09T10:56:30.151Z,97045.53
2022-12-09T10:57:32.079Z,97043.16
2022-12-09T10:58:33.905Z,97039.78
2022-12-09T10:59:35.984Z,97038.16
2022-12-09T11:00:37.738Z,97038.38
2022-12-09T11:01:50.623Z,97042.25
2022-12-09T11:02:53.824Z,97036.97
2022-12-09T11:03:55.962Z,97036.56
2022-12-09T11:05:17.460Z,97037.38
2022-12-09T11:06:23.907Z,97041.25
2022-12-09T11:07:27.153Z,97039.22
2022-12-09T11:08:29.310Z,97036.94
2022-12-09T11:09:33.164Z,97044.28
2022-12-09T11:10:35.361Z,97043.22
2022-12-09T11:11:43.112Z,97041.66
2022-12-09T11:12:45.098Z,97037.16
2022-12-09T11:13:46.829Z,97036.81
2022-12-09T11:14:52.657Z,97039.38
2022-12-09T11:15:54.590Z,97038.34
2022-12-09T11:16:58.878Z,97034.44
2022-12-09T11:18:03.435Z,97032.09
2022-12-09T11:19:05.158Z,97042.03
2022-12-09T11:20:07.986Z,97035.72
2022-12-09T11:21:28.169Z,97040.13
2022-12-09T11:22:31.143Z,97043.94
2022-12-09T11:23:33.645Z,97042.81
2022-12-09T11:24:35.411Z,97041.00
2022-12-09T11:25:37.615Z,97037.50
2022-12-09T11:26:39.317Z,97037.25
2022-12-09T11:27:53.120Z,97030.53
2022-12-09T11:29:26.814Z,97035.47
2022-12-09T11:30:31.324Z,97024.81
2022-12-09T11:31:38.206Z,97028.47
2022-12-09T11:32:57.708Z,97020.34
2022-12-09T11:34:01.229Z,97014.00
2022-12-09T11:35:03.075Z,97021.50
2022-12-09T11:37:10.713Z,97023.47
2022-12-09T11:38:14.834Z,97016.94
2022-12-09T11:39:22.274Z,97012.69
2022-12-09T11:40:24.466Z,97006.97
2022-12-09T11:41:26.761Z,97011.16
2022-12-09T11:42:29.613Z,97007.47
2022-12-09T11:43:32.984Z,97002.72
2022-12-09T11:44:35.675Z,96993.56
2022-12-09T11:45:38.624Z,96999.84
2022-12-09T11:46:40.264Z,97003.94
2022-12-09T11:48:25.630Z,97004.22
2022-12-09T11:49:16.469Z,97002.16
2022-12-09T11:50:19.669Z,96996.44
2022-12-09T11:51:31.117Z,97003.78
2022-12-09T11:52:32.499Z,97000.19
2022-12-09T11:53:39.844Z,96992.34
2022-12-09T11:54:44.350Z,96995.53
2022-12-09T11:55:51.659Z,96997.16
2022-12-09T11:56:53.913Z,96988.25
2022-12-09T11:58:03.753Z,96998.16
2022-12-09T11:59:09.708Z,96997.84
2022-12-09T12:00:37.391Z,96994.19
2022-12-09T12:02:10.773Z,96989.72
2022-12-09T12:03:16.784Z,96992.00
2022-12-09T12:04:35.372Z,96999.78
2022-12-09T12:05:41.663Z,96998.78
2022-12-09T12:06:53.168Z,96994.88
2022-12-09T12:08:13.147Z,96991.44
2022-12-09T12:09:29.500Z,96988.47
2022-12-09T12:10:42.335Z,96985.56
2022-12-09T12:11:50.047Z,96995.44
2022-12-09T12:12:56.227Z,96989.56
2022-12-09T12:14:13.737Z,96995.88
2022-12-09T12:15:17.587Z,96991.00
2022-12-09T12:16:39.676Z,96983.59
2022-12-09T12:17:42.391Z,96984.34
2022-12-09T12:18:55.882Z,96985.00
2022-12-09T12:19:57.523Z,96989.25
2022-12-09T12:20:58.856Z,96983.31
2022-12-09T12:22:18.537Z,96984.03
2022-12-09T12:23:22.826Z,96980.28
2022-12-09T12:24:24.088Z,96984.44
2022-12-09T12:25:45.737Z,96986.19
2022-12-09T12:26:52.966Z,96982.50
2022-12-09T12:28:13.468Z,96980.34
2022-12-09T12:29:30.568Z,96991.56
2022-12-09T12:30:47.035Z,96985.06
2022-12-09T12:32:00.226Z,96985.94
2022-12-09T12:34:44.015Z,96970.94
2022-12-09T12:36:04.199Z,96976.19
2022-12-09T12:37:08.345Z,96963.59
2022-12-09T12:38:18.817Z,96969.34
2022-12-09T12:39:39.671Z,96973.19